sensor_id;sensor_type;location;lat;lon;timestamp;P1;durP1;ratioP1;P2;durP2;ratioP2
8050;SDS011;4068;42.158;24.732;2023-04-06T00:01:12;11.87;;;7.80;;
8050;SDS011;4068;42.158;24.732;2023-04-06T00:03:37;12.87;;;8.30;;
8050;SDS011;4068;42.158;24.732;2023-04-06T00:06:03;12.00;;;8.47;;
8050;SDS011;4068;42.158;24.732;2023-04-06T00:08:29;10.23;;;8.00;;
8050;SDS011;4068;42.158;24.732;2023-04-06T00:10:54;10.90;;;8.23;;
8050;SDS011;4068;42.158;24.732;2023-04-06T00:13:20;12.23;;;8.27;;
8050;SDS011;4068;42.158;24.732;2023-04-06T00:15:46;10.27;;;7.40;;
8050;SDS011;4068;42.158;24.732;2023-04-06T00:18:11;12.87;;;8.57;;
8050;SDS011;4068;42.158;24.732;2023-04-06T00:20:37;11.70;;;7.70;;
8050;SDS011;4068;42.158;24.732;2023-04-06T00:23:02;10.30;;;7.30;;
8050;SDS011;4068;42.158;24.732;2023-04-06T00:25:28;11.33;;;8.40;;
8050;SDS011;4068;42.158;24.732;2023-04-06T00:27:53;9.67;;;7.70;;
8050;SDS011;4068;42.158;24.732;2023-04-06T00:30:19;9.73;;;7.63;;
8050;SDS011;4068;42.158;24.732;2023-04-06T00:32:45;13.57;;;8.63;;
8050;SDS011;4068;42.158;24.732;2023-04-06T00:35:10;11.73;;;8.23;;
8050;SDS011;4068;42.158;24.732;2023-04-06T00:37:36;10.90;;;7.83;;
8050;SDS011;4068;42.158;24.732;2023-04-06T00:40:01;11.17;;;7.70;;
8050;SDS011;4068;42.158;24.732;2023-04-06T00:42:27;12.30;;;8.60;;
8050;SDS011;4068;42.158;24.732;2023-04-06T00:44:53;14.17;;;7.70;;
8050;SDS011;4068;42.158;24.732;2023-04-06T00:47:20;8.90;;;7.00;;
8050;SDS011;4068;42.158;24.732;2023-04-06T00:49:47;12.47;;;8.80;;
8050;SDS011;4068;42.158;24.732;2023-04-06T00:52:13;12.37;;;8.63;;
8050;SDS011;4068;42.158;24.732;2023-04-06T00:54:38;12.27;;;9.17;;
8050;SDS011;4068;42.158;24.732;2023-04-06T00:57:04;13.23;;;9.33;;
8050;SDS011;4068;42.158;24.732;2023-04-06T00:59:30;13.53;;;8.70;;
8050;SDS011;4068;42.158;24.732;2023-04-06T01:01:56;13.17;;;8.60;;
8050;SDS011;4068;42.158;24.732;2023-04-06T01:04:22;11.77;;;8.60;;
8050;SDS011;4068;42.158;24.732;2023-04-06T01:06:48;12.10;;;9.00;;
8050;SDS011;4068;42.158;24.732;2023-04-06T01:09:15;13.23;;;8.67;;
8050;SDS011;4068;42.158;24.732;2023-04-06T01:11:40;12.83;;;8.67;;
8050;SDS011;4068;42.158;24.732;2023-04-06T01:14:06;12.10;;;7.83;;
8050;SDS011;4068;42.158;24.732;2023-04-06T01:16:32;15.17;;;8.30;;
8050;SDS011;4068;42.158;24.732;2023-04-06T01:18:58;11.37;;;7.90;;
8050;SDS011;4068;42.158;24.732;2023-04-06T01:21:24;12.67;;;9.10;;
8050;SDS011;4068;42.158;24.732;2023-04-06T01:23:50;13.70;;;9.10;;
8050;SDS011;4068;42.158;24.732;2023-04-06T01:26:16;13.57;;;8.83;;
8050;SDS011;4068;42.158;24.732;2023-04-06T01:28:41;11.43;;;8.23;;
8050;SDS011;4068;42.158;24.732;2023-04-06T01:31:07;13.20;;;8.73;;
8050;SDS011;4068;42.158;24.732;2023-04-06T01:33:33;12.73;;;8.93;;
8050;SDS011;4068;42.158;24.732;2023-04-06T01:35:59;12.73;;;8.57;;
8050;SDS011;4068;42.158;24.732;2023-04-06T01:38:25;12.23;;;8.67;;
8050;SDS011;4068;42.158;24.732;2023-04-06T01:40:51;13.67;;;8.93;;
8050;SDS011;4068;42.158;24.732;2023-04-06T01:43:17;12.77;;;8.87;;
8050;SDS011;4068;42.158;24.732;2023-04-06T01:45:42;15.30;;;8.90;;
8050;SDS011;4068;42.158;24.732;2023-04-06T01:48:08;16.17;;;9.33;;
8050;SDS011;4068;42.158;24.732;2023-04-06T01:50:33;15.30;;;9.03;;
8050;SDS011;4068;42.158;24.732;2023-04-06T01:52:59;12.53;;;8.33;;
8050;SDS011;4068;42.158;24.732;2023-04-06T01:55:25;12.87;;;9.00;;
8050;SDS011;4068;42.158;24.732;2023-04-06T01:57:51;12.37;;;8.10;;
8050;SDS011;4068;42.158;24.732;2023-04-06T02:00:16;14.07;;;8.50;;
8050;SDS011;4068;42.158;24.732;2023-04-06T02:02:42;11.93;;;8.67;;
8050;SDS011;4068;42.158;24.732;2023-04-06T02:05:07;12.63;;;8.70;;
8050;SDS011;4068;42.158;24.732;2023-04-06T02:07:33;11.17;;;8.73;;
8050;SDS011;4068;42.158;24.732;2023-04-06T02:09:59;12.60;;;8.77;;
8050;SDS011;4068;42.158;24.732;2023-04-06T02:12:24;17.53;;;9.30;;
8050;SDS011;4068;42.158;24.732;2023-04-06T02:14:50;12.27;;;8.30;;
8050;SDS011;4068;42.158;24.732;2023-04-06T02:17:15;14.67;;;9.20;;
8050;SDS011;4068;42.158;24.732;2023-04-06T02:19:41;15.27;;;8.83;;
8050;SDS011;4068;42.158;24.732;2023-04-06T02:22:06;14.03;;;8.67;;
8050;SDS011;4068;42.158;24.732;2023-04-06T02:24:32;13.13;;;8.87;;
8050;SDS011;4068;42.158;24.732;2023-04-06T02:26:57;11.47;;;8.30;;
8050;SDS011;4068;42.158;24.732;2023-04-06T02:29:23;14.27;;;8.97;;
8050;SDS011;4068;42.158;24.732;2023-04-06T02:31:49;11.50;;;8.77;;
8050;SDS011;4068;42.158;24.732;2023-04-06T02:34:14;13.27;;;8.47;;
8050;SDS011;4068;42.158;24.732;2023-04-06T02:36:45;17.40;;;10.17;;
8050;SDS011;4068;42.158;24.732;2023-04-06T02:39:12;15.63;;;9.60;;
8050;SDS011;4068;42.158;24.732;2023-04-06T02:41:38;13.53;;;9.30;;
8050;SDS011;4068;42.158;24.732;2023-04-06T02:44:07;15.93;;;9.63;;
8050;SDS011;4068;42.158;24.732;2023-04-06T02:46:33;14.33;;;9.37;;
8050;SDS011;4068;42.158;24.732;2023-04-06T02:48:59;16.83;;;10.00;;
8050;SDS011;4068;42.158;24.732;2023-04-06T02:51:25;15.20;;;9.87;;
8050;SDS011;4068;42.158;24.732;2023-04-06T02:53:53;15.53;;;9.77;;
8050;SDS011;4068;42.158;24.732;2023-04-06T02:56:19;14.70;;;9.53;;
8050;SDS011;4068;42.158;24.732;2023-04-06T02:58:46;15.53;;;10.17;;
8050;SDS011;4068;42.158;24.732;2023-04-06T03:01:12;15.10;;;9.67;;
8050;SDS011;4068;42.158;24.732;2023-04-06T03:03:37;19.03;;;9.97;;
8050;SDS011;4068;42.158;24.732;2023-04-06T03:06:03;17.00;;;9.73;;
8050;SDS011;4068;42.158;24.732;2023-04-06T03:08:28;15.13;;;9.20;;
8050;SDS011;4068;42.158;24.732;2023-04-06T03:10:54;15.93;;;9.67;;
8050;SDS011;4068;42.158;24.732;2023-04-06T03:13:20;14.70;;;9.67;;
8050;SDS011;4068;42.158;24.732;2023-04-06T03:15:45;17.33;;;9.27;;
8050;SDS011;4068;42.158;24.732;2023-04-06T03:18:11;15.10;;;9.37;;
8050;SDS011;4068;42.158;24.732;2023-04-06T03:20:36;14.90;;;8.47;;
8050;SDS011;4068;42.158;24.732;2023-04-06T03:23:02;15.03;;;9.60;;
8050;SDS011;4068;42.158;24.732;2023-04-06T03:25:27;16.20;;;9.67;;
8050;SDS011;4068;42.158;24.732;2023-04-06T03:27:55;16.17;;;10.20;;
8050;SDS011;4068;42.158;24.732;2023-04-06T03:30:20;15.60;;;9.90;;
8050;SDS011;4068;42.158;24.732;2023-04-06T03:32:46;13.77;;;8.87;;
8050;SDS011;4068;42.158;24.732;2023-04-06T03:35:11;15.43;;;9.57;;
8050;SDS011;4068;42.158;24.732;2023-04-06T03:37:37;13.53;;;9.47;;
8050;SDS011;4068;42.158;24.732;2023-04-06T03:40:02;17.37;;;10.00;;
8050;SDS011;4068;42.158;24.732;2023-04-06T03:42:29;22.77;;;11.13;;
8050;SDS011;4068;42.158;24.732;2023-04-06T03:44:54;18.37;;;10.47;;
8050;SDS011;4068;42.158;24.732;2023-04-06T03:47:20;16.43;;;10.00;;
8050;SDS011;4068;42.158;24.732;2023-04-06T03:49:45;15.27;;;10.30;;
8050;SDS011;4068;42.158;24.732;2023-04-06T03:52:11;16.83;;;11.00;;
8050;SDS011;4068;42.158;24.732;2023-04-06T03:54:36;14.27;;;10.00;;
8050;SDS011;4068;42.158;24.732;2023-04-06T03:57:02;15.43;;;10.70;;
8050;SDS011;4068;42.158;24.732;2023-04-06T03:59:28;17.77;;;11.70;;
8050;SDS011;4068;42.158;24.732;2023-04-06T04:01:54;15.90;;;10.83;;
8050;SDS011;4068;42.158;24.732;2023-04-06T04:04:19;18.57;;;11.70;;
8050;SDS011;4068;42.158;24.732;2023-04-06T04:06:45;17.93;;;11.67;;
8050;SDS011;4068;42.158;24.732;2023-04-06T04:09:10;15.97;;;10.37;;
8050;SDS011;4068;42.158;24.732;2023-04-06T04:11:36;16.07;;;10.73;;
8050;SDS011;4068;42.158;24.732;2023-04-06T04:14:01;20.87;;;11.53;;
8050;SDS011;4068;42.158;24.732;2023-04-06T04:16:27;15.40;;;10.47;;
8050;SDS011;4068;42.158;24.732;2023-04-06T04:18:52;26.73;;;12.47;;
8050;SDS011;4068;42.158;24.732;2023-04-06T04:21:18;18.23;;;10.33;;
8050;SDS011;4068;42.158;24.732;2023-04-06T04:23:43;16.90;;;10.77;;
8050;SDS011;4068;42.158;24.732;2023-04-06T04:26:08;15.23;;;10.60;;
8050;SDS011;4068;42.158;24.732;2023-04-06T04:28:34;17.50;;;10.93;;
8050;SDS011;4068;42.158;24.732;2023-04-06T04:30:59;16.00;;;10.20;;
8050;SDS011;4068;42.158;24.732;2023-04-06T04:33:25;18.63;;;11.70;;
8050;SDS011;4068;42.158;24.732;2023-04-06T04:35:50;18.30;;;10.23;;
8050;SDS011;4068;42.158;24.732;2023-04-06T04:38:16;14.20;;;8.90;;
8050;SDS011;4068;42.158;24.732;2023-04-06T04:40:41;17.67;;;9.27;;
8050;SDS011;4068;42.158;24.732;2023-04-06T04:43:07;15.37;;;9.57;;
8050;SDS011;4068;42.158;24.732;2023-04-06T04:45:32;14.87;;;9.50;;
8050;SDS011;4068;42.158;24.732;2023-04-06T04:47:58;17.10;;;10.00;;
8050;SDS011;4068;42.158;24.732;2023-04-06T04:50:23;21.27;;;10.20;;
8050;SDS011;4068;42.158;24.732;2023-04-06T04:52:49;14.70;;;9.40;;
8050;SDS011;4068;42.158;24.732;2023-04-06T04:55:14;20.87;;;10.23;;
8050;SDS011;4068;42.158;24.732;2023-04-06T04:57:40;15.53;;;9.87;;
8050;SDS011;4068;42.158;24.732;2023-04-06T05:00:06;13.87;;;10.10;;
8050;SDS011;4068;42.158;24.732;2023-04-06T05:02:31;16.50;;;8.87;;
8050;SDS011;4068;42.158;24.732;2023-04-06T05:04:57;15.00;;;9.80;;
8050;SDS011;4068;42.158;24.732;2023-04-06T05:07:22;15.10;;;9.23;;
8050;SDS011;4068;42.158;24.732;2023-04-06T05:09:48;12.73;;;9.27;;
8050;SDS011;4068;42.158;24.732;2023-04-06T05:12:13;15.83;;;9.63;;
8050;SDS011;4068;42.158;24.732;2023-04-06T05:14:39;19.87;;;9.17;;
8050;SDS011;4068;42.158;24.732;2023-04-06T05:17:05;13.80;;;9.47;;
8050;SDS011;4068;42.158;24.732;2023-04-06T05:19:30;14.73;;;8.53;;
8050;SDS011;4068;42.158;24.732;2023-04-06T05:21:56;14.33;;;8.73;;
8050;SDS011;4068;42.158;24.732;2023-04-06T05:24:21;13.63;;;9.00;;
8050;SDS011;4068;42.158;24.732;2023-04-06T05:26:48;14.13;;;8.20;;
8050;SDS011;4068;42.158;24.732;2023-04-06T05:29:13;13.10;;;8.60;;
8050;SDS011;4068;42.158;24.732;2023-04-06T05:31:39;19.23;;;9.30;;
8050;SDS011;4068;42.158;24.732;2023-04-06T05:34:05;14.57;;;8.83;;
8050;SDS011;4068;42.158;24.732;2023-04-06T05:36:31;13.80;;;8.50;;
8050;SDS011;4068;42.158;24.732;2023-04-06T05:38:57;14.20;;;7.83;;
8050;SDS011;4068;42.158;24.732;2023-04-06T05:41:23;13.77;;;8.30;;
8050;SDS011;4068;42.158;24.732;2023-04-06T05:43:49;14.23;;;8.23;;
8050;SDS011;4068;42.158;24.732;2023-04-06T05:46:15;12.00;;;7.83;;
8050;SDS011;4068;42.158;24.732;2023-04-06T05:48:40;11.53;;;8.40;;
8050;SDS011;4068;42.158;24.732;2023-04-06T05:51:06;9.87;;;7.23;;
8050;SDS011;4068;42.158;24.732;2023-04-06T05:53:31;10.57;;;7.23;;
8050;SDS011;4068;42.158;24.732;2023-04-06T05:56:00;24.53;;;7.53;;
8050;SDS011;4068;42.158;24.732;2023-04-06T05:58:26;12.73;;;8.47;;
8050;SDS011;4068;42.158;24.732;2023-04-06T06:00:58;11.57;;;7.30;;
8050;SDS011;4068;42.158;24.732;2023-04-06T06:03:25;11.53;;;7.33;;
8050;SDS011;4068;42.158;24.732;2023-04-06T06:05:50;15.00;;;8.23;;
8050;SDS011;4068;42.158;24.732;2023-04-06T06:08:16;13.20;;;8.83;;
8050;SDS011;4068;42.158;24.732;2023-04-06T06:10:41;14.23;;;8.30;;
8050;SDS011;4068;42.158;24.732;2023-04-06T06:13:07;14.03;;;8.07;;
8050;SDS011;4068;42.158;24.732;2023-04-06T06:15:32;12.33;;;7.17;;
8050;SDS011;4068;42.158;24.732;2023-04-06T06:17:58;11.80;;;7.20;;
8050;SDS011;4068;42.158;24.732;2023-04-06T06:20:23;15.40;;;7.80;;
8050;SDS011;4068;42.158;24.732;2023-04-06T06:22:49;12.00;;;8.07;;
8050;SDS011;4068;42.158;24.732;2023-04-06T06:25:14;12.47;;;7.00;;
8050;SDS011;4068;42.158;24.732;2023-04-06T06:27:40;9.13;;;7.40;;
8050;SDS011;4068;42.158;24.732;2023-04-06T06:30:06;11.23;;;7.37;;
8050;SDS011;4068;42.158;24.732;2023-04-06T06:32:32;15.87;;;7.33;;
8050;SDS011;4068;42.158;24.732;2023-04-06T06:34:58;12.20;;;6.97;;
8050;SDS011;4068;42.158;24.732;2023-04-06T06:37:23;8.40;;;6.00;;
8050;SDS011;4068;42.158;24.732;2023-04-06T06:39:48;12.37;;;6.93;;
8050;SDS011;4068;42.158;24.732;2023-04-06T06:42:14;13.13;;;6.40;;
8050;SDS011;4068;42.158;24.732;2023-04-06T06:44:40;11.10;;;7.57;;
8050;SDS011;4068;42.158;24.732;2023-04-06T06:47:05;15.23;;;7.10;;
8050;SDS011;4068;42.158;24.732;2023-04-06T06:49:30;6.93;;;5.90;;
8050;SDS011;4068;42.158;24.732;2023-04-06T06:51:56;10.93;;;6.50;;
8050;SDS011;4068;42.158;24.732;2023-04-06T06:54:21;10.27;;;6.97;;
8050;SDS011;4068;42.158;24.732;2023-04-06T06:56:47;10.17;;;6.93;;
8050;SDS011;4068;42.158;24.732;2023-04-06T06:59:12;11.80;;;6.27;;
8050;SDS011;4068;42.158;24.732;2023-04-06T07:01:38;8.40;;;6.73;;
8050;SDS011;4068;42.158;24.732;2023-04-06T07:04:03;10.93;;;6.80;;
8050;SDS011;4068;42.158;24.732;2023-04-06T07:06:29;8.33;;;6.37;;
8050;SDS011;4068;42.158;24.732;2023-04-06T07:08:54;9.43;;;6.50;;
8050;SDS011;4068;42.158;24.732;2023-04-06T07:11:20;13.63;;;7.13;;
8050;SDS011;4068;42.158;24.732;2023-04-06T07:13:45;9.53;;;6.23;;
8050;SDS011;4068;42.158;24.732;2023-04-06T07:16:11;7.70;;;6.33;;
8050;SDS011;4068;42.158;24.732;2023-04-06T07:18:36;9.50;;;6.60;;
8050;SDS011;4068;42.158;24.732;2023-04-06T07:21:02;11.93;;;7.23;;
8050;SDS011;4068;42.158;24.732;2023-04-06T07:23:28;9.13;;;6.93;;
8050;SDS011;4068;42.158;24.732;2023-04-06T07:25:53;12.20;;;6.70;;
8050;SDS011;4068;42.158;24.732;2023-04-06T07:28:19;7.30;;;5.67;;
8050;SDS011;4068;42.158;24.732;2023-04-06T07:30:45;9.57;;;6.87;;
8050;SDS011;4068;42.158;24.732;2023-04-06T07:33:10;9.83;;;6.23;;
8050;SDS011;4068;42.158;24.732;2023-04-06T07:35:36;9.03;;;5.97;;
8050;SDS011;4068;42.158;24.732;2023-04-06T07:38:02;8.63;;;6.47;;
8050;SDS011;4068;42.158;24.732;2023-04-06T07:40:28;10.43;;;6.30;;
8050;SDS011;4068;42.158;24.732;2023-04-06T07:42:53;12.23;;;7.27;;
8050;SDS011;4068;42.158;24.732;2023-04-06T07:45:19;8.90;;;6.57;;
8050;SDS011;4068;42.158;24.732;2023-04-06T07:47:45;9.70;;;6.70;;
8050;SDS011;4068;42.158;24.732;2023-04-06T07:50:11;11.60;;;7.03;;
8050;SDS011;4068;42.158;24.732;2023-04-06T07:52:37;10.83;;;7.10;;
8050;SDS011;4068;42.158;24.732;2023-04-06T07:55:04;8.20;;;6.03;;
8050;SDS011;4068;42.158;24.732;2023-04-06T07:57:29;9.30;;;6.70;;
8050;SDS011;4068;42.158;24.732;2023-04-06T07:59:55;13.77;;;7.00;;
8050;SDS011;4068;42.158;24.732;2023-04-06T08:02:20;8.15;;;6.07;;
8050;SDS011;4068;42.158;24.732;2023-04-06T08:04:47;9.37;;;7.00;;
8050;SDS011;4068;42.158;24.732;2023-04-06T08:07:12;13.17;;;7.20;;
8050;SDS011;4068;42.158;24.732;2023-04-06T08:09:38;9.43;;;6.90;;
8050;SDS011;4068;42.158;24.732;2023-04-06T08:12:03;12.25;;;6.93;;
8050;SDS011;4068;42.158;24.732;2023-04-06T08:14:29;11.13;;;6.40;;
8050;SDS011;4068;42.158;24.732;2023-04-06T08:16:54;7.90;;;6.70;;
8050;SDS011;4068;42.158;24.732;2023-04-06T08:19:20;8.68;;;6.72;;
8050;SDS011;4068;42.158;24.732;2023-04-06T08:21:45;9.50;;;6.60;;
8050;SDS011;4068;42.158;24.732;2023-04-06T08:24:12;7.80;;;6.45;;
8050;SDS011;4068;42.158;24.732;2023-04-06T08:26:38;8.50;;;6.95;;
8050;SDS011;4068;42.158;24.732;2023-04-06T08:29:04;9.55;;;6.20;;
8050;SDS011;4068;42.158;24.732;2023-04-06T08:31:32;7.35;;;5.43;;
8050;SDS011;4068;42.158;24.732;2023-04-06T08:33:58;8.45;;;6.53;;
8050;SDS011;4068;42.158;24.732;2023-04-06T08:36:24;8.00;;;6.00;;
8050;SDS011;4068;42.158;24.732;2023-04-06T08:38:49;8.05;;;5.80;;
8050;SDS011;4068;42.158;24.732;2023-04-06T08:41:15;7.82;;;5.40;;
8050;SDS011;4068;42.158;24.732;2023-04-06T08:43:50;7.28;;;6.03;;
8050;SDS011;4068;42.158;24.732;2023-04-06T08:46:21;6.85;;;5.95;;
8050;SDS011;4068;42.158;24.732;2023-04-06T08:48:48;8.30;;;5.72;;
8050;SDS011;4068;42.158;24.732;2023-04-06T08:51:15;7.78;;;6.10;;
8050;SDS011;4068;42.158;24.732;2023-04-06T08:53:40;6.22;;;5.63;;
8050;SDS011;4068;42.158;24.732;2023-04-06T08:56:06;7.57;;;5.20;;
8050;SDS011;4068;42.158;24.732;2023-04-06T08:58:37;7.07;;;5.40;;
8050;SDS011;4068;42.158;24.732;2023-04-06T09:01:08;6.35;;;5.57;;
8050;SDS011;4068;42.158;24.732;2023-04-06T09:03:38;12.95;;;5.97;;
8050;SDS011;4068;42.158;24.732;2023-04-06T09:06:04;7.93;;;6.13;;
8050;SDS011;4068;42.158;24.732;2023-04-06T09:08:33;6.03;;;5.43;;
8050;SDS011;4068;42.158;24.732;2023-04-06T09:11:00;6.28;;;5.68;;
8050;SDS011;4068;42.158;24.732;2023-04-06T09:13:29;6.85;;;5.63;;
8050;SDS011;4068;42.158;24.732;2023-04-06T09:16:01;4.57;;;4.10;;
8050;SDS011;4068;42.158;24.732;2023-04-06T09:18:31;5.82;;;4.13;;
8050;SDS011;4068;42.158;24.732;2023-04-06T09:21:01;8.07;;;4.72;;
8050;SDS011;4068;42.158;24.732;2023-04-06T09:23:27;5.35;;;4.53;;
8050;SDS011;4068;42.158;24.732;2023-04-06T09:28:52;5.25;;;4.40;;
8050;SDS011;4068;42.158;24.732;2023-04-06T09:33:48;4.63;;;4.22;;
8050;SDS011;4068;42.158;24.732;2023-04-06T09:36:14;4.13;;;3.72;;
8050;SDS011;4068;42.158;24.732;2023-04-06T09:38:55;4.60;;;4.10;;
8050;SDS011;4068;42.158;24.732;2023-04-06T09:44:06;5.60;;;4.90;;
8050;SDS011;4068;42.158;24.732;2023-04-06T09:46:34;5.75;;;4.57;;
8050;SDS011;4068;42.158;24.732;2023-04-06T09:49:07;6.50;;;5.03;;
8050;SDS011;4068;42.158;24.732;2023-04-06T09:54:03;5.55;;;4.38;;
8050;SDS011;4068;42.158;24.732;2023-04-06T09:56:45;6.30;;;4.90;;
8050;SDS011;4068;42.158;24.732;2023-04-06T09:59:13;12.57;;;4.80;;
8050;SDS011;4068;42.158;24.732;2023-04-06T10:01:50;7.80;;;5.43;;
8050;SDS011;4068;42.158;24.732;2023-04-06T10:04:21;5.40;;;4.90;;
8050;SDS011;4068;42.158;24.732;2023-04-06T10:07:05;6.68;;;5.18;;
8050;SDS011;4068;42.158;24.732;2023-04-06T10:09:32;6.40;;;5.15;;
8050;SDS011;4068;42.158;24.732;2023-04-06T10:12:07;5.93;;;5.13;;
8050;SDS011;4068;42.158;24.732;2023-04-06T10:14:33;7.40;;;5.00;;
8050;SDS011;4068;42.158;24.732;2023-04-06T10:17:06;5.63;;;4.80;;
8050;SDS011;4068;42.158;24.732;2023-04-06T10:22:36;5.05;;;4.53;;
8050;SDS011;4068;42.158;24.732;2023-04-06T10:25:25;6.18;;;4.78;;
8050;SDS011;4068;42.158;24.732;2023-04-06T10:28:07;5.00;;;4.50;;
8050;SDS011;4068;42.158;24.732;2023-04-06T10:30:34;5.03;;;4.57;;
8050;SDS011;4068;42.158;24.732;2023-04-06T10:33:00;8.73;;;4.55;;
8050;SDS011;4068;42.158;24.732;2023-04-06T10:35:38;6.07;;;4.60;;
8050;SDS011;4068;42.158;24.732;2023-04-06T10:38:04;15.95;;;5.10;;
8050;SDS011;4068;42.158;24.732;2023-04-06T10:40:30;5.75;;;5.20;;
8050;SDS011;4068;42.158;24.732;2023-04-06T10:43:06;9.48;;;5.55;;
8050;SDS011;4068;42.158;24.732;2023-04-06T10:45:33;5.18;;;4.55;;
8050;SDS011;4068;42.158;24.732;2023-04-06T10:47:59;5.72;;;4.90;;
8050;SDS011;4068;42.158;24.732;2023-04-06T10:50:25;6.50;;;5.07;;
8050;SDS011;4068;42.158;24.732;2023-04-06T10:53:00;6.07;;;4.70;;
8050;SDS011;4068;42.158;24.732;2023-04-06T10:55:27;5.22;;;4.72;;
8050;SDS011;4068;42.158;24.732;2023-04-06T10:57:54;5.43;;;4.65;;
8050;SDS011;4068;42.158;24.732;2023-04-06T11:00:19;5.10;;;4.60;;
8050;SDS011;4068;42.158;24.732;2023-04-06T11:02:45;5.03;;;4.53;;
8050;SDS011;4068;42.158;24.732;2023-04-06T11:05:11;4.35;;;3.95;;
8050;SDS011;4068;42.158;24.732;2023-04-06T11:07:40;7.07;;;4.85;;
8050;SDS011;4068;42.158;24.732;2023-04-06T11:10:07;7.25;;;4.97;;
8050;SDS011;4068;42.158;24.732;2023-04-06T11:12:33;6.50;;;4.38;;
8050;SDS011;4068;42.158;24.732;2023-04-06T11:15:00;4.22;;;3.83;;
8050;SDS011;4068;42.158;24.732;2023-04-06T11:17:30;6.47;;;4.70;;
8050;SDS011;4068;42.158;24.732;2023-04-06T11:19:56;5.78;;;4.75;;
8050;SDS011;4068;42.158;24.732;2023-04-06T11:22:23;6.00;;;4.88;;
8050;SDS011;4068;42.158;24.732;2023-04-06T11:24:49;7.97;;;5.72;;
8050;SDS011;4068;42.158;24.732;2023-04-06T11:27:15;6.35;;;5.00;;
8050;SDS011;4068;42.158;24.732;2023-04-06T11:29:41;8.45;;;4.65;;
8050;SDS011;4068;42.158;24.732;2023-04-06T11:32:07;7.25;;;4.90;;
8050;SDS011;4068;42.158;24.732;2023-04-06T11:34:34;6.47;;;5.20;;
8050;SDS011;4068;42.158;24.732;2023-04-06T11:37:07;6.10;;;5.05;;
8050;SDS011;4068;42.158;24.732;2023-04-06T11:39:42;7.47;;;4.50;;
8050;SDS011;4068;42.158;24.732;2023-04-06T11:42:12;5.22;;;4.55;;
8050;SDS011;4068;42.158;24.732;2023-04-06T11:44:39;5.55;;;4.80;;
8050;SDS011;4068;42.158;24.732;2023-04-06T11:47:08;5.00;;;4.45;;
8050;SDS011;4068;42.158;24.732;2023-04-06T11:49:39;5.97;;;5.05;;
8050;SDS011;4068;42.158;24.732;2023-04-06T11:52:15;9.98;;;4.93;;
8050;SDS011;4068;42.158;24.732;2023-04-06T11:54:42;5.13;;;4.60;;
8050;SDS011;4068;42.158;24.732;2023-04-06T11:57:08;7.43;;;5.20;;
8050;SDS011;4068;42.158;24.732;2023-04-06T11:59:34;5.13;;;4.63;;
8050;SDS011;4068;42.158;24.732;2023-04-06T12:02:01;5.38;;;4.88;;
8050;SDS011;4068;42.158;24.732;2023-04-06T12:04:27;6.32;;;5.07;;
8050;SDS011;4068;42.158;24.732;2023-04-06T12:06:52;6.43;;;5.07;;
8050;SDS011;4068;42.158;24.732;2023-04-06T12:09:18;8.88;;;5.20;;
8050;SDS011;4068;42.158;24.732;2023-04-06T12:11:44;5.75;;;5.15;;
8050;SDS011;4068;42.158;24.732;2023-04-06T12:14:10;5.70;;;4.68;;
8050;SDS011;4068;42.158;24.732;2023-04-06T12:16:36;5.95;;;5.13;;
8050;SDS011;4068;42.158;24.732;2023-04-06T12:19:01;6.95;;;5.35;;
8050;SDS011;4068;42.158;24.732;2023-04-06T12:21:28;5.30;;;4.80;;
8050;SDS011;4068;42.158;24.732;2023-04-06T12:23:55;5.45;;;4.75;;
8050;SDS011;4068;42.158;24.732;2023-04-06T12:26:21;6.55;;;5.05;;
8050;SDS011;4068;42.158;24.732;2023-04-06T12:28:47;7.65;;;6.00;;
8050;SDS011;4068;42.158;24.732;2023-04-06T12:31:16;6.15;;;5.43;;
8050;SDS011;4068;42.158;24.732;2023-04-06T12:33:47;6.50;;;4.90;;
8050;SDS011;4068;42.158;24.732;2023-04-06T12:36:14;9.77;;;5.40;;
8050;SDS011;4068;42.158;24.732;2023-04-06T12:38:41;9.20;;;5.60;;
8050;SDS011;4068;42.158;24.732;2023-04-06T12:41:07;7.07;;;5.70;;
8050;SDS011;4068;42.158;24.732;2023-04-06T12:43:32;5.30;;;4.80;;
8050;SDS011;4068;42.158;24.732;2023-04-06T12:45:58;7.85;;;5.13;;
8050;SDS011;4068;42.158;24.732;2023-04-06T12:48:24;6.18;;;4.90;;
8050;SDS011;4068;42.158;24.732;2023-04-06T12:50:54;6.45;;;5.30;;
8050;SDS011;4068;42.158;24.732;2023-04-06T12:53:22;6.75;;;5.65;;
8050;SDS011;4068;42.158;24.732;2023-04-06T12:55:48;7.30;;;5.68;;
8050;SDS011;4068;42.158;24.732;2023-04-06T12:58:14;6.50;;;5.45;;
8050;SDS011;4068;42.158;24.732;2023-04-06T13:00:40;6.88;;;5.10;;
8050;SDS011;4068;42.158;24.732;2023-04-06T13:03:05;6.80;;;5.55;;
8050;SDS011;4068;42.158;24.732;2023-04-06T13:05:31;6.38;;;5.10;;
8050;SDS011;4068;42.158;24.732;2023-04-06T13:07:56;6.70;;;5.38;;
8050;SDS011;4068;42.158;24.732;2023-04-06T13:10:22;7.93;;;6.35;;
8050;SDS011;4068;42.158;24.732;2023-04-06T13:12:47;6.60;;;4.97;;
8050;SDS011;4068;42.158;24.732;2023-04-06T13:15:13;7.00;;;6.22;;
8050;SDS011;4068;42.158;24.732;2023-04-06T13:17:38;6.28;;;5.22;;
8050;SDS011;4068;42.158;24.732;2023-04-06T13:20:04;10.73;;;6.85;;
8050;SDS011;4068;42.158;24.732;2023-04-06T13:22:31;5.90;;;5.30;;
8050;SDS011;4068;42.158;24.732;2023-04-06T13:24:56;6.45;;;5.38;;
8050;SDS011;4068;42.158;24.732;2023-04-06T13:27:22;10.43;;;6.10;;
8050;SDS011;4068;42.158;24.732;2023-04-06T13:29:47;7.28;;;5.95;;
8050;SDS011;4068;42.158;24.732;2023-04-06T13:32:13;9.45;;;5.30;;
8050;SDS011;4068;42.158;24.732;2023-04-06T13:34:38;7.40;;;5.78;;
8050;SDS011;4068;42.158;24.732;2023-04-06T13:37:05;6.15;;;5.32;;
8050;SDS011;4068;42.158;24.732;2023-04-06T13:39:31;9.57;;;6.13;;
8050;SDS011;4068;42.158;24.732;2023-04-06T13:41:57;7.10;;;5.72;;
8050;SDS011;4068;42.158;24.732;2023-04-06T13:44:22;5.95;;;5.35;;
8050;SDS011;4068;42.158;24.732;2023-04-06T13:46:48;8.85;;;5.97;;
8050;SDS011;4068;42.158;24.732;2023-04-06T13:49:13;5.95;;;5.35;;
8050;SDS011;4068;42.158;24.732;2023-04-06T13:51:40;5.90;;;5.30;;
8050;SDS011;4068;42.158;24.732;2023-04-06T13:54:06;5.75;;;5.13;;
8050;SDS011;4068;42.158;24.732;2023-04-06T13:56:31;8.10;;;6.00;;
8050;SDS011;4068;42.158;24.732;2023-04-06T13:58:57;8.35;;;6.13;;
8050;SDS011;4068;42.158;24.732;2023-04-06T14:01:22;5.28;;;4.75;;
8050;SDS011;4068;42.158;24.732;2023-04-06T14:03:48;6.43;;;5.80;;
8050;SDS011;4068;42.158;24.732;2023-04-06T14:06:14;7.30;;;6.15;;
8050;SDS011;4068;42.158;24.732;2023-04-06T14:08:40;7.72;;;5.85;;
8050;SDS011;4068;42.158;24.732;2023-04-06T14:11:06;6.95;;;5.57;;
8050;SDS011;4068;42.158;24.732;2023-04-06T14:13:36;6.28;;;5.30;;
8050;SDS011;4068;42.158;24.732;2023-04-06T14:16:02;5.88;;;5.30;;
8050;SDS011;4068;42.158;24.732;2023-04-06T14:18:28;6.43;;;4.50;;
8050;SDS011;4068;42.158;24.732;2023-04-06T14:20:56;7.15;;;5.07;;
8050;SDS011;4068;42.158;24.732;2023-04-06T14:23:22;6.18;;;5.15;;
8050;SDS011;4068;42.158;24.732;2023-04-06T14:25:50;5.85;;;5.25;;
8050;SDS011;4068;42.158;24.732;2023-04-06T14:28:16;8.15;;;6.18;;
8050;SDS011;4068;42.158;24.732;2023-04-06T14:30:42;5.78;;;4.68;;
8050;SDS011;4068;42.158;24.732;2023-04-06T14:33:08;5.47;;;4.97;;
8050;SDS011;4068;42.158;24.732;2023-04-06T14:35:33;6.82;;;5.80;;
8050;SDS011;4068;42.158;24.732;2023-04-06T14:37:58;7.57;;;5.70;;
8050;SDS011;4068;42.158;24.732;2023-04-06T14:40:24;6.50;;;5.38;;
8050;SDS011;4068;42.158;24.732;2023-04-06T14:42:50;6.68;;;5.60;;
8050;SDS011;4068;42.158;24.732;2023-04-06T14:45:19;6.68;;;5.93;;
8050;SDS011;4068;42.158;24.732;2023-04-06T14:47:46;5.30;;;4.80;;
8050;SDS011;4068;42.158;24.732;2023-04-06T14:50:12;6.45;;;5.72;;
8050;SDS011;4068;42.158;24.732;2023-04-06T14:52:37;6.50;;;5.80;;
8050;SDS011;4068;42.158;24.732;2023-04-06T14:55:03;7.53;;;6.07;;
8050;SDS011;4068;42.158;24.732;2023-04-06T14:57:29;8.73;;;6.28;;
8050;SDS011;4068;42.158;24.732;2023-04-06T14:59:55;5.88;;;5.28;;
8050;SDS011;4068;42.158;24.732;2023-04-06T15:02:21;10.43;;;6.35;;